sensor_id;sensor_type;location;lat;lon;timestamp;temperature;humidity
3488;DHT22;38546;48.170;11.724;2023-04-01T00:00:04;9.30;99.90
3488;DHT22;38546;48.170;11.724;2023-04-01T00:02:56;9.20;99.90
3488;DHT22;38546;48.170;11.724;2023-04-01T00:05:46;9.10;99.90
3488;DHT22;38546;48.170;11.724;2023-04-01T00:08:35;9.10;99.90
3488;DHT22;38546;48.170;11.724;2023-04-01T00:11:25;9.00;99.90
3488;DHT22;38546;48.170;11.724;2023-04-01T00:14:16;9.00;99.90
3488;DHT22;38546;48.170;11.724;2023-04-01T00:17:06;9.00;99.90
3488;DHT22;38546;48.170;11.724;2023-04-01T00:19:56;9.00;99.90
3488;DHT22;38546;48.170;11.724;2023-04-01T00:22:45;9.00;99.90
3488;DHT22;38546;48.170;11.724;2023-04-01T00:25:35;9.00;99.90
3488;DHT22;38546;48.170;11.724;2023-04-01T00:28:25;8.90;99.90
3488;DHT22;38546;48.170;11.724;2023-04-01T00:31:15;8.90;99.90
3488;DHT22;38546;48.170;11.724;2023-04-01T00:34:04;8.90;99.90
3488;DHT22;38546;48.170;11.724;2023-04-01T00:36:53;8.70;99.90
3488;DHT22;38546;48.170;11.724;2023-04-01T00:39:42;8.90;99.90
3488;DHT22;38546;48.170;11.724;2023-04-01T00:42:33;8.90;99.90
3488;DHT22;38546;48.170;11.724;2023-04-01T00:45:38;8.90;99.90
3488;DHT22;38546;48.170;11.724;2023-04-01T00:48:45;8.70;99.90
3488;DHT22;38546;48.170;11.724;2023-04-01T00:51:38;8.80;99.90
3488;DHT22;38546;48.170;11.724;2023-04-01T00:54:30;8.80;99.90
3488;DHT22;38546;48.170;11.724;2023-04-01T00:57:31;8.50;99.90
3488;DHT22;38546;48.170;11.724;2023-04-01T01:00:23;8.80;99.90
3488;DHT22;38546;48.170;11.724;2023-04-01T01:03:12;8.70;99.90
3488;DHT22;38546;48.170;11.724;2023-04-01T01:06:08;8.70;99.90
3488;DHT22;38546;48.170;11.724;2023-04-01T01:10:35;8.70;99.90
3488;DHT22;38546;48.170;11.724;2023-04-01T01:13:36;8.80;99.90
3488;DHT22;38546;48.170;11.724;2023-04-01T01:16:39;8.90;99.90
3488;DHT22;38546;48.170;11.724;2023-04-01T01:19:52;8.80;99.90
3488;DHT22;38546;48.170;11.724;2023-04-01T01:35:47;8.80;99.90
3488;DHT22;38546;48.170;11.724;2023-04-01T01:38:41;8.60;99.90
3488;DHT22;38546;48.170;11.724;2023-04-01T01:41:31;8.50;99.90
3488;DHT22;38546;48.170;11.724;2023-04-01T01:44:21;8.50;99.90
3488;DHT22;38546;48.170;11.724;2023-04-01T01:47:13;8.60;99.90
3488;DHT22;38546;48.170;11.724;2023-04-01T01:50:05;8.70;99.90
3488;DHT22;38546;48.170;11.724;2023-04-01T01:53:06;8.60;99.90
3488;DHT22;38546;48.170;11.724;2023-04-01T01:55:57;8.80;99.90
3488;DHT22;38546;48.170;11.724;2023-04-01T01:58:52;8.70;99.90
3488;DHT22;38546;48.170;11.724;2023-04-01T02:01:49;8.80;99.90
3488;DHT22;38546;48.170;11.724;2023-04-01T02:04:43;8.80;99.90
3488;DHT22;38546;48.170;11.724;2023-04-01T02:07:34;8.80;99.90
3488;DHT22;38546;48.170;11.724;2023-04-01T02:10:26;8.70;99.90
3488;DHT22;38546;48.170;11.724;2023-04-01T02:13:25;8.90;99.90
3488;DHT22;38546;48.170;11.724;2023-04-01T02:16:26;8.90;99.90
3488;DHT22;38546;48.170;11.724;2023-04-01T02:19:19;8.90;99.90
3488;DHT22;38546;48.170;11.724;2023-04-01T02:22:15;8.80;99.90
3488;DHT22;38546;48.170;11.724;2023-04-01T02:25:11;9.00;99.90
3488;DHT22;38546;48.170;11.724;2023-04-01T02:28:04;8.80;99.90
3488;DHT22;38546;48.170;11.724;2023-04-01T02:30:57;9.00;99.90
3488;DHT22;38546;48.170;11.724;2023-04-01T02:33:48;9.00;99.90
3488;DHT22;38546;48.170;11.724;2023-04-01T02:36:38;9.00;99.90
3488;DHT22;38546;48.170;11.724;2023-04-01T02:39:27;9.10;99.90
3488;DHT22;38546;48.170;11.724;2023-04-01T02:42:16;8.90;99.90
3488;DHT22;38546;48.170;11.724;2023-04-01T02:45:07;9.00;99.90
3488;DHT22;38546;48.170;11.724;2023-04-01T02:47:58;8.80;99.90
3488;DHT22;38546;48.170;11.724;2023-04-01T02:50:47;8.80;99.90
3488;DHT22;38546;48.170;11.724;2023-04-01T02:53:36;9.00;99.90
3488;DHT22;38546;48.170;11.724;2023-04-01T02:56:26;8.90;99.90
3488;DHT22;38546;48.170;11.724;2023-04-01T02:59:15;9.00;99.90
3488;DHT22;38546;48.170;11.724;2023-04-01T03:02:04;9.00;99.90
3488;DHT22;38546;48.170;11.724;2023-04-01T03:04:54;8.90;99.90
3488;DHT22;38546;48.170;11.724;2023-04-01T03:07:43;9.10;99.90
3488;DHT22;38546;48.170;11.724;2023-04-01T03:10:32;9.00;99.90
3488;DHT22;38546;48.170;11.724;2023-04-01T03:13:22;8.90;99.90
3488;DHT22;38546;48.170;11.724;2023-04-01T03:16:11;9.10;99.90
3488;DHT22;38546;48.170;11.724;2023-04-01T03:19:00;9.10;99.90
3488;DHT22;38546;48.170;11.724;2023-04-01T03:21:51;9.00;99.90
3488;DHT22;38546;48.170;11.724;2023-04-01T03:24:40;8.80;99.90
3488;DHT22;38546;48.170;11.724;2023-04-01T03:27:30;8.90;99.90
3488;DHT22;38546;48.170;11.724;2023-04-01T03:30:19;9.00;99.90
3488;DHT22;38546;48.170;11.724;2023-04-01T03:33:08;8.90;99.90
3488;DHT22;38546;48.170;11.724;2023-04-01T03:35:58;8.80;99.90
3488;DHT22;38546;48.170;11.724;2023-04-01T03:38:48;8.90;99.90
3488;DHT22;38546;48.170;11.724;2023-04-01T03:41:37;8.90;99.90
3488;DHT22;38546;48.170;11.724;2023-04-01T03:44:31;8.80;99.90
3488;DHT22;38546;48.170;11.724;2023-04-01T03:47:21;8.80;99.90
3488;DHT22;38546;48.170;11.724;2023-04-01T03:50:10;8.50;99.90
3488;DHT22;38546;48.170;11.724;2023-04-01T03:53:00;8.60;99.90
3488;DHT22;38546;48.170;11.724;2023-04-01T03:55:49;8.70;99.90
3488;DHT22;38546;48.170;11.724;2023-04-01T03:58:40;8.50;99.90
3488;DHT22;38546;48.170;11.724;2023-04-01T04:01:29;8.50;99.90
3488;DHT22;38546;48.170;11.724;2023-04-01T04:04:19;8.50;99.90
3488;DHT22;38546;48.170;11.724;2023-04-01T04:07:09;8.40;99.90
3488;DHT22;38546;48.170;11.724;2023-04-01T04:09:58;8.60;99.90
3488;DHT22;38546;48.170;11.724;2023-04-01T04:12:49;8.60;99.90
3488;DHT22;38546;48.170;11.724;2023-04-01T04:15:38;8.50;99.90
3488;DHT22;38546;48.170;11.724;2023-04-01T04:18:29;8.70;99.90
3488;DHT22;38546;48.170;11.724;2023-04-01T04:21:18;8.50;99.90
3488;DHT22;38546;48.170;11.724;2023-04-01T04:24:08;8.50;99.90
3488;DHT22;38546;48.170;11.724;2023-04-01T04:26:57;8.60;99.90
3488;DHT22;38546;48.170;11.724;2023-04-01T04:29:47;8.40;99.90
3488;DHT22;38546;48.170;11.724;2023-04-01T04:32:36;8.30;99.90
3488;DHT22;38546;48.170;11.724;2023-04-01T04:35:26;8.30;99.90
3488;DHT22;38546;48.170;11.724;2023-04-01T04:38:15;8.40;99.90
3488;DHT22;38546;48.170;11.724;2023-04-01T04:41:09;8.50;99.90
3488;DHT22;38546;48.170;11.724;2023-04-01T04:44:00;8.60;99.90
3488;DHT22;38546;48.170;11.724;2023-04-01T04:46:49;8.60;99.90
3488;DHT22;38546;48.170;11.724;2023-04-01T04:49:39;8.60;99.90
3488;DHT22;38546;48.170;11.724;2023-04-01T04:52:29;8.60;99.90
3488;DHT22;38546;48.170;11.724;2023-04-01T04:55:18;8.40;99.90
3488;DHT22;38546;48.170;11.724;2023-04-01T04:58:08;8.70;99.90
3488;DHT22;38546;48.170;11.724;2023-04-01T05:00:57;8.70;99.90
3488;DHT22;38546;48.170;11.724;2023-04-01T05:03:46;8.60;99.90
3488;DHT22;38546;48.170;11.724;2023-04-01T05:06:36;8.60;99.90
3488;DHT22;38546;48.170;11.724;2023-04-01T05:09:25;8.60;99.90
3488;DHT22;38546;48.170;11.724;2023-04-01T05:12:15;8.70;99.90
3488;DHT22;38546;48.170;11.724;2023-04-01T05:15:06;8.60;99.90
3488;DHT22;38546;48.170;11.724;2023-04-01T05:17:56;8.60;99.90
3488;DHT22;38546;48.170;11.724;2023-04-01T05:20:53;8.70;99.90
3488;DHT22;38546;48.170;11.724;2023-04-01T05:23:43;8.90;99.90
3488;DHT22;38546;48.170;11.724;2023-04-01T05:26:33;9.00;99.90
3488;DHT22;38546;48.170;11.724;2023-04-01T05:29:23;8.80;99.90
3488;DHT22;38546;48.170;11.724;2023-04-01T05:32:13;8.90;99.90
3488;DHT22;38546;48.170;11.724;2023-04-01T05:35:03;9.10;99.90
3488;DHT22;38546;48.170;11.724;2023-04-01T05:37:53;8.90;99.90
3488;DHT22;38546;48.170;11.724;2023-04-01T05:40:42;9.00;99.90
3488;DHT22;38546;48.170;11.724;2023-04-01T05:43:31;9.20;99.90
3488;DHT22;38546;48.170;11.724;2023-04-01T05:46:20;9.20;99.90
3488;DHT22;38546;48.170;11.724;2023-04-01T05:49:09;9.00;99.90
3488;DHT22;38546;48.170;11.724;2023-04-01T05:51:59;9.20;99.90
3488;DHT22;38546;48.170;11.724;2023-04-01T05:54:48;8.90;99.90
3488;DHT22;38546;48.170;11.724;2023-04-01T05:57:38;9.00;99.90
3488;DHT22;38546;48.170;11.724;2023-04-01T06:00:27;9.00;99.90
3488;DHT22;38546;48.170;11.724;2023-04-01T06:03:16;9.30;99.90
3488;DHT22;38546;48.170;11.724;2023-04-01T06:06:16;9.30;99.90
3488;DHT22;38546;48.170;11.724;2023-04-01T06:09:26;9.30;99.90
3488;DHT22;38546;48.170;11.724;2023-04-01T06:12:45;9.40;99.90
3488;DHT22;38546;48.170;11.724;2023-04-01T06:26:23;9.20;99.90
3488;DHT22;38546;48.170;11.724;2023-04-01T06:29:40;9.40;99.90
3488;DHT22;38546;48.170;11.724;2023-04-01T06:43:58;9.60;99.90
3488;DHT22;38546;48.170;11.724;2023-04-01T06:46:59;9.70;99.90
3488;DHT22;38546;48.170;11.724;2023-04-01T06:50:20;9.60;99.90
3488;DHT22;38546;48.170;11.724;2023-04-01T06:54:55;9.70;99.90
3488;DHT22;38546;48.170;11.724;2023-04-01T06:57:56;9.90;99.90
3488;DHT22;38546;48.170;11.724;2023-04-01T07:00:49;9.90;99.90
3488;DHT22;38546;48.170;11.724;2023-04-01T07:03:43;10.10;99.90
3488;DHT22;38546;48.170;11.724;2023-04-01T07:08:09;9.90;99.90
3488;DHT22;38546;48.170;11.724;2023-04-01T07:11:06;10.00;99.90
3488;DHT22;38546;48.170;11.724;2023-04-01T07:14:41;10.10;99.90
3488;DHT22;38546;48.170;11.724;2023-04-01T07:17:33;10.30;99.90
3488;DHT22;38546;48.170;11.724;2023-04-01T07:20:31;10.50;99.90
3488;DHT22;38546;48.170;11.724;2023-04-01T07:23:28;10.60;99.90
3488;DHT22;38546;48.170;11.724;2023-04-01T07:26:23;10.70;99.90
3488;DHT22;38546;48.170;11.724;2023-04-01T07:29:14;10.60;99.90
3488;DHT22;38546;48.170;11.724;2023-04-01T07:32:39;10.40;99.90
3488;DHT22;38546;48.170;11.724;2023-04-01T07:35:40;10.70;99.90
3488;DHT22;38546;48.170;11.724;2023-04-01T07:51:20;11.10;99.90
3488;DHT22;38546;48.170;11.724;2023-04-01T07:56:04;11.30;99.90
3488;DHT22;38546;48.170;11.724;2023-04-01T07:59:15;11.30;99.90
3488;DHT22;38546;48.170;11.724;2023-04-01T08:04:12;11.30;99.90
3488;DHT22;38546;48.170;11.724;2023-04-01T08:09:10;11.30;99.90
3488;DHT22;38546;48.170;11.724;2023-04-01T08:12:21;11.10;99.90
3488;DHT22;38546;48.170;11.724;2023-04-01T08:15:57;11.20;99.90
3488;DHT22;38546;48.170;11.724;2023-04-01T08:19:43;11.20;99.90
3488;DHT22;38546;48.170;11.724;2023-04-01T08:22:51;11.00;99.90
3488;DHT22;38546;48.170;11.724;2023-04-01T08:26:34;11.10;99.90
3488;DHT22;38546;48.170;11.724;2023-04-01T08:29:36;11.30;99.90
3488;DHT22;38546;48.170;11.724;2023-04-01T08:32:38;11.30;99.90
3488;DHT22;38546;48.170;11.724;2023-04-01T08:35:31;11.40;99.90
3488;DHT22;38546;48.170;11.724;2023-04-01T08:38:36;11.50;99.90
3488;DHT22;38546;48.170;11.724;2023-04-01T08:51:02;11.50;99.90
3488;DHT22;38546;48.170;11.724;2023-04-01T08:54:30;11.90;99.90
3488;DHT22;38546;48.170;11.724;2023-04-01T09:03:10;12.40;99.90
3488;DHT22;38546;48.170;11.724;2023-04-01T09:21:22;12.50;99.90
3488;DHT22;38546;48.170;11.724;2023-04-01T09:39:04;13.10;99.90
3488;DHT22;38546;48.170;11.724;2023-04-01T09:44:15;12.80;99.90
3488;DHT22;38546;48.170;11.724;2023-04-01T09:53:36;12.70;99.90
3488;DHT22;38546;48.170;11.724;2023-04-01T10:12:11;13.30;99.90
3488;DHT22;38546;48.170;11.724;2023-04-01T10:22:50;13.30;99.90
3488;DHT22;38546;48.170;11.724;2023-04-01T10:29:24;13.40;99.90
3488;DHT22;38546;48.170;11.724;2023-04-01T10:47:00;13.00;99.90
3488;DHT22;38546;48.170;11.724;2023-04-01T11:03:02;13.00;99.90
3488;DHT22;38546;48.170;11.724;2023-04-01T11:06:18;12.90;99.90
3488;DHT22;38546;48.170;11.724;2023-04-01T11:27:11;11.30;99.90
3488;DHT22;38546;48.170;11.724;2023-04-01T11:32:31;11.50;99.90
3488;DHT22;38546;48.170;11.724;2023-04-01T11:41:49;12.20;99.90
3488;DHT22;38546;48.170;11.724;2023-04-01T11:46:18;12.20;99.90
3488;DHT22;38546;48.170;11.724;2023-04-01T11:54:41;11.90;99.90
3488;DHT22;38546;48.170;11.724;2023-04-01T12:20:12;10.00;99.90
3488;DHT22;38546;48.170;11.724;2023-04-01T12:30:30;9.70;99.90
3488;DHT22;38546;48.170;11.724;2023-04-01T12:33:52;9.30;99.90
3488;DHT22;38546;48.170;11.724;2023-04-01T12:37:30;9.20;99.90
3488;DHT22;38546;48.170;11.724;2023-04-01T12:41:03;9.20;99.90
3488;DHT22;38546;48.170;11.724;2023-04-01T12:44:16;9.10;99.90
3488;DHT22;38546;48.170;11.724;2023-04-01T12:49:08;9.20;99.90
3488;DHT22;38546;48.170;11.724;2023-04-01T12:52:11;9.20;99.90
3488;DHT22;38546;48.170;11.724;2023-04-01T12:55:35;9.10;99.90
3488;DHT22;38546;48.170;11.724;2023-04-01T12:59:25;9.00;99.90
3488;DHT22;38546;48.170;11.724;2023-04-01T13:02:55;9.00;99.90
3488;DHT22;38546;48.170;11.724;2023-04-01T13:06:31;8.90;99.90
3488;DHT22;38546;48.170;11.724;2023-04-01T13:10:02;8.80;99.90
3488;DHT22;38546;48.170;11.724;2023-04-01T13:13:18;8.80;99.90
3488;DHT22;38546;48.170;11.724;2023-04-01T13:16:42;8.70;99.90
3488;DHT22;38546;48.170;11.724;2023-04-01T13:19:56;8.80;99.90
3488;DHT22;38546;48.170;11.724;2023-04-01T13:26:40;8.80;99.90
3488;DHT22;38546;48.170;11.724;2023-04-01T13:30:27;8.70;99.90
3488;DHT22;38546;48.170;11.724;2023-04-01T13:42:05;8.50;99.90
3488;DHT22;38546;48.170;11.724;2023-04-01T14:21:38;9.40;99.90
3488;DHT22;38546;48.170;11.724;2023-04-01T14:31:44;9.30;99.90
3488;DHT22;38546;48.170;11.724;2023-04-01T14:35:16;9.30;99.90
3488;DHT22;38546;48.170;11.724;2023-04-01T14:45:26;9.40;99.90
3488;DHT22;38546;48.170;11.724;2023-04-01T14:48:59;9.40;99.90
3488;DHT22;38546;48.170;11.724;2023-04-01T14:51:52;9.30;99.90
3488;DHT22;38546;48.170;11.724;2023-04-01T14:54:48;9.40;99.90
3488;DHT22;38546;48.170;11.724;2023-04-01T14:57:38;9.60;99.90
3488;DHT22;38546;48.170;11.724;2023-04-01T15:12:21;9.70;99.90
3488;DHT22;38546;48.170;11.724;2023-04-01T15:20:02;9.90;99.90
3488;DHT22;38546;48.170;11.724;2023-04-01T15:34:32;10.30;99.90
3488;DHT22;38546;48.170;11.724;2023-04-01T15:39:12;10.00;99.90
3488;DHT22;38546;48.170;11.724;2023-04-01T15:42:19;9.90;99.90
3488;DHT22;38546;48.170;11.724;2023-04-01T15:53:44;9.80;99.90
3488;DHT22;38546;48.170;11.724;2023-04-01T15:57:38;9.90;99.90
3488;DHT22;38546;48.170;11.724;2023-04-01T16:17:57;10.30;99.90
3488;DHT22;38546;48.170;11.724;2023-04-01T16:22:27;10.20;99.90
3488;DHT22;38546;48.170;11.724;2023-04-01T16:25:33;10.10;99.90
3488;DHT22;38546;48.170;11.724;2023-04-01T16:28:54;10.30;99.90
3488;DHT22;38546;48.170;11.724;2023-04-01T16:37:55;10.50;99.90
3488;DHT22;38546;48.170;11.724;2023-04-01T16:41:14;10.70;99.90
3488;DHT22;38546;48.170;11.724;2023-04-01T16:44:17;10.60;99.90
3488;DHT22;38546;48.170;11.724;2023-04-01T16:47:12;10.50;99.90
3488;DHT22;38546;48.170;11.724;2023-04-01T16:50:30;10.70;99.90
3488;DHT22;38546;48.170;11.724;2023-04-01T16:55:12;10.60;99.90
3488;DHT22;38546;48.170;11.724;2023-04-01T16:58:14;10.40;99.90
3488;DHT22;38546;48.170;11.724;2023-04-01T17:01:26;10.50;99.90
3488;DHT22;38546;48.170;11.724;2023-04-01T17:04:30;10.60;99.90
3488;DHT22;38546;48.170;11.724;2023-04-01T17:08:08;10.70;99.90
3488;DHT22;38546;48.170;11.724;2023-04-01T17:13:51;10.40;99.90
3488;DHT22;38546;48.170;11.724;2023-04-01T17:26:28;10.40;99.90
3488;DHT22;38546;48.170;11.724;2023-04-01T17:30:21;10.30;99.90
3488;DHT22;38546;48.170;11.724;2023-04-01T17:35:04;10.30;99.90
3488;DHT22;38546;48.170;11.724;2023-04-01T17:38:34;10.20;99.90
3488;DHT22;38546;48.170;11.724;2023-04-01T17:51:40;9.90;99.90
3488;DHT22;38546;48.170;11.724;2023-04-01T17:56:11;10.00;99.90
3488;DHT22;38546;48.170;11.724;2023-04-01T17:59:53;10.30;99.90
3488;DHT22;38546;48.170;11.724;2023-04-01T18:03:23;10.00;99.90
3488;DHT22;38546;48.170;11.724;2023-04-01T18:15:00;10.30;99.90
3488;DHT22;38546;48.170;11.724;2023-04-01T18:18:10;10.30;99.90
3488;DHT22;38546;48.170;11.724;2023-04-01T18:21:51;10.30;99.90
3488;DHT22;38546;48.170;11.724;2023-04-01T18:24:59;10.30;99.90
3488;DHT22;38546;48.170;11.724;2023-04-01T18:34:47;10.40;99.90
3488;DHT22;38546;48.170;11.724;2023-04-01T18:38:04;10.20;99.90
3488;DHT22;38546;48.170;11.724;2023-04-01T18:48:59;10.10;99.90
3488;DHT22;38546;48.170;11.724;2023-04-01T18:52:03;9.80;99.90
3488;DHT22;38546;48.170;11.724;2023-04-01T18:55:49;9.70;99.90
3488;DHT22;38546;48.170;11.724;2023-04-01T18:59:06;9.70;99.90
3488;DHT22;38546;48.170;11.724;2023-04-01T19:02:50;9.70;99.90
3488;DHT22;38546;48.170;11.724;2023-04-01T19:05:46;9.80;99.90
3488;DHT22;38546;48.170;11.724;2023-04-01T19:08:40;9.80;99.90
3488;DHT22;38546;48.170;11.724;2023-04-01T19:11:51;9.80;99.90
3488;DHT22;38546;48.170;11.724;2023-04-01T19:15:26;10.00;99.90
3488;DHT22;38546;48.170;11.724;2023-04-01T19:18:32;9.90;99.90
3488;DHT22;38546;48.170;11.724;2023-04-01T19:21:47;9.90;99.90
3488;DHT22;38546;48.170;11.724;2023-04-01T19:30:33;10.00;99.90
3488;DHT22;38546;48.170;11.724;2023-04-01T19:41:46;9.50;99.90
3488;DHT22;38546;48.170;11.724;2023-04-01T19:45:05;9.80;99.90
3488;DHT22;38546;48.170;11.724;2023-04-01T19:59:09;9.60;99.90
3488;DHT22;38546;48.170;11.724;2023-04-01T20:02:52;9.90;99.90
3488;DHT22;38546;48.170;11.724;2023-04-01T20:06:01;9.70;99.90
3488;DHT22;38546;48.170;11.724;2023-04-01T20:19:07;9.70;99.90
3488;DHT22;38546;48.170;11.724;2023-04-01T20:21:59;9.70;99.90
3488;DHT22;38546;48.170;11.724;2023-04-01T20:24:50;9.60;99.90
3488;DHT22;38546;48.170;11.724;2023-04-01T20:27:56;9.50;99.90
3488;DHT22;38546;48.170;11.724;2023-04-01T20:31:12;9.50;99.90
3488;DHT22;38546;48.170;11.724;2023-04-01T20:42:58;9.50;99.90
3488;DHT22;38546;48.170;11.724;2023-04-01T20:53:07;9.60;99.90
3488;DHT22;38546;48.170;11.724;2023-04-01T21:28:28;9.40;99.90
3488;DHT22;38546;48.170;11.724;2023-04-01T21:32:09;9.10;99.90
3488;DHT22;38546;48.170;11.724;2023-04-01T21:37:58;9.40;99.90
3488;DHT22;38546;48.170;11.724;2023-04-01T22:06:18;9.20;99.90
3488;DHT22;38546;48.170;11.724;2023-04-01T22:09:55;9.50;99.90
3488;DHT22;38546;48.170;11.724;2023-04-01T22:13:16;9.40;99.90
3488;DHT22;38546;48.170;11.724;2023-04-01T22:18:04;9.40;99.90
3488;DHT22;38546;48.170;11.724;2023-04-01T22:21:27;9.40;99.90
3488;DHT22;38546;48.170;11.724;2023-04-01T22:24:33;9.40;99.90
3488;DHT22;38546;48.170;11.724;2023-04-01T22:28:05;9.40;99.90
3488;DHT22;38546;48.170;11.724;2023-04-01T22:31:00;9.40;99.90
3488;DHT22;38546;48.170;11.724;2023-04-01T22:34:48;9.40;99.90
3488;DHT22;38546;48.170;11.724;2023-04-01T22:44:40;9.30;99.90
3488;DHT22;38546;48.170;11.724;2023-04-01T22:48:35;9.30;99.90
3488;DHT22;38546;48.170;11.724;2023-04-01T22:58:54;9.40;99.90
3488;DHT22;38546;48.170;11.724;2023-04-01T23:04:58;9.20;99.90
3488;DHT22;38546;48.170;11.724;2023-04-01T23:14:50;9.00;99.90
3488;DHT22;38546;48.170;11.724;2023-04-01T23:23:17;8.90;99.90
3488;DHT22;38546;48.170;11.724;2023-04-01T23:26:34;8.80;99.90
3488;DHT22;38546;48.170;11.724;2023-04-01T23:29:35;8.90;99.90
3488;DHT22;38546;48.170;11.724;2023-04-01T23:32:25;8.90;99.90
3488;DHT22;38546;48.170;11.724;2023-04-01T23:35:16;8.90;99.90
3488;DHT22;38546;48.170;11.724;2023-04-01T23:38:08;8.90;99.90
3488;DHT22;38546;48.170;11.724;2023-04-01T23:40:57;9.00;99.90
3488;DHT22;38546;48.170;11.724;2023-04-01T23:43:56;9.10;99.90
3488;DHT22;38546;48.170;11.724;2023-04-01T23:46:58;9.20;99.90
3488;DHT22;38546;48.170;11.724;2023-04-01T23:49:53;9.00;99.90
3488;DHT22;38546;48.170;11.724;2023-04-01T23:52:53;9.00;99.90
3488;DHT22;38546;48.170;11.724;2023-04-01T23:55:47;9.10;99.90
3488;DHT22;38546;48.170;11.724;2023-04-01T23:58:46;9.00;99.90
